createdAt,value
2023-04-29T00:01:30.815Z,9.77
2023-04-29T00:03:58.783Z,8.98
2023-04-29T00:06:25.965Z,8.43
2023-04-29T00:08:53.536Z,8.27
2023-04-29T00:11:21.052Z,7.05
2023-04-29T00:13:48.031Z,11.73
2023-04-29T00:16:15.276Z,8.32
2023-04-29T00:18:42.245Z,7.40
2023-04-29T00:21:09.314Z,7.95
2023-04-29T00:23:36.663Z,6.62
2023-04-29T00:26:03.760Z,10.15
2023-04-29T00:28:30.780Z,8.65
2023-04-29T00:30:58.235Z,7.00
2023-04-29T00:33:25.360Z,8.10
2023-04-29T00:35:52.370Z,6.68
2023-04-29T00:38:19.438Z,8.20
2023-04-29T00:40:46.630Z,7.80
2023-04-29T00:43:13.721Z,8.15
2023-04-29T00:45:40.823Z,8.07
2023-04-29T00:48:08.122Z,7.18
2023-04-29T00:50:36.963Z,6.65
2023-04-29T00:53:04.275Z,6.10
2023-04-29T00:55:33.247Z,6.78
2023-04-29T00:58:00.972Z,7.17
2023-04-29T01:00:28.811Z,9.35
2023-04-29T01:02:57.283Z,12.20
2023-04-29T01:05:25.375Z,10.88
2023-04-29T01:08:17.068Z,6.57
2023-04-29T01:10:55.409Z,10.23
2023-04-29T01:13:42.918Z,9.68
2023-04-29T01:16:19.710Z,8.13
2023-04-29T01:18:51.085Z,6.90
2023-04-29T01:21:18.417Z,10.38
2023-04-29T01:23:46.132Z,9.65
2023-04-29T01:26:14.351Z,7.32
2023-04-29T01:29:19.267Z,14.90
2023-04-29T01:31:52.362Z,11.63
2023-04-29T01:34:45.132Z,14.35
2023-04-29T01:37:23.003Z,18.58
2023-04-29T01:39:52.954Z,11.70
2023-04-29T01:42:46.253Z,13.00
2023-04-29T01:45:21.914Z,20.23
2023-04-29T01:47:53.861Z,13.32
2023-04-29T01:50:21.584Z,10.00
2023-04-29T01:52:48.786Z,11.48
2023-04-29T01:55:15.754Z,10.70
2023-04-29T01:57:42.768Z,14.68
2023-04-29T02:00:11.855Z,14.55
2023-04-29T02:02:38.932Z,12.70
2023-04-29T02:05:06.192Z,11.45
2023-04-29T02:07:33.349Z,12.60
2023-04-29T02:10:00.271Z,9.25
2023-04-29T02:12:27.270Z,10.52
2023-04-29T02:14:54.610Z,12.05
2023-04-29T02:19:48.749Z,10.90
2023-04-29T02:22:16.450Z,11.07
2023-04-29T02:24:43.689Z,11.68
2023-04-29T02:27:10.609Z,12.05
2023-04-29T02:29:37.778Z,10.55
2023-04-29T02:32:04.990Z,12.77
2023-04-29T02:34:32.470Z,9.93
2023-04-29T02:36:59.477Z,9.02
2023-04-29T02:39:26.372Z,6.95
2023-04-29T02:41:55.944Z,8.98
2023-04-29T02:44:23.008Z,11.00
2023-04-29T02:46:50.041Z,9.10
2023-04-29T02:49:17.053Z,9.88
2023-04-29T02:51:44.014Z,9.75
2023-04-29T02:54:12.115Z,6.05
2023-04-29T02:56:39.177Z,9.45
2023-04-29T02:59:06.639Z,9.65
2023-04-29T03:01:33.943Z,7.10
2023-04-29T03:04:01.183Z,7.60
2023-04-29T03:06:28.956Z,8.88
2023-04-29T03:08:56.345Z,8.40
2023-04-29T03:11:25.100Z,9.07
2023-04-29T03:13:52.296Z,10.70
2023-04-29T03:16:19.301Z,10.32
2023-04-29T03:18:46.294Z,9.32
2023-04-29T03:21:13.255Z,8.00
2023-04-29T03:23:40.429Z,11.05
2023-04-29T03:26:07.629Z,12.75
2023-04-29T03:28:34.633Z,11.02
2023-04-29T03:31:02.156Z,6.82
2023-04-29T03:33:29.149Z,8.57
2023-04-29T03:35:56.395Z,10.50
2023-04-29T03:38:23.398Z,8.93
2023-04-29T03:40:50.407Z,9.75
2023-04-29T03:43:17.428Z,5.70
2023-04-29T03:45:44.603Z,6.15
2023-04-29T03:48:12.765Z,6.12
2023-04-29T03:50:39.740Z,10.32
2023-04-29T03:53:06.813Z,6.85
2023-04-29T03:55:33.723Z,7.70
2023-04-29T03:58:00.891Z,9.50
2023-04-29T04:00:31.391Z,9.25
2023-04-29T04:02:59.290Z,11.82
2023-04-29T04:05:26.808Z,10.00
2023-04-29T04:07:54.051Z,8.93
2023-04-29T04:10:21.035Z,10.10
2023-04-29T04:12:48.030Z,10.63
2023-04-29T04:15:15.443Z,16.65
2023-04-29T04:17:42.402Z,19.60
2023-04-29T04:20:09.846Z,13.23
2023-04-29T04:22:36.929Z,11.82
2023-04-29T04:25:04.918Z,11.95
2023-04-29T04:27:31.862Z,12.15
2023-04-29T04:29:58.785Z,8.88
2023-04-29T04:32:26.238Z,14.32
2023-04-29T04:34:53.172Z,8.65
2023-04-29T04:37:20.147Z,9.27
2023-04-29T04:39:48.034Z,9.02
2023-04-29T04:42:15.059Z,8.65
2023-04-29T04:44:42.207Z,8.93
2023-04-29T04:47:09.293Z,11.70
2023-04-29T04:49:36.428Z,10.50
2023-04-29T04:52:04.473Z,10.90
2023-04-29T04:54:35.911Z,12.90
2023-04-29T04:57:06.355Z,11.63
2023-04-29T04:59:34.509Z,9.77
2023-04-29T05:02:01.530Z,11.48
2023-04-29T05:04:28.723Z,10.30
2023-04-29T05:06:55.772Z,12.07
2023-04-29T05:09:23.806Z,12.40
2023-04-29T05:11:51.390Z,9.18
2023-04-29T05:14:18.785Z,12.10
2023-04-29T05:16:46.878Z,8.23
2023-04-29T05:19:13.897Z,16.48
2023-04-29T05:21:40.965Z,14.23
2023-04-29T05:24:07.944Z,12.82
2023-04-29T05:26:34.931Z,12.63
2023-04-29T05:29:02.049Z,10.30
2023-04-29T05:31:30.516Z,11.10
2023-04-29T05:33:57.728Z,9.52
2023-04-29T05:36:24.808Z,10.52
2023-04-29T05:38:51.732Z,15.18
2023-04-29T05:41:18.637Z,9.30
2023-04-29T05:43:45.687Z,8.85
2023-04-29T05:46:12.693Z,10.68
2023-04-29T05:48:39.810Z,9.60
2023-04-29T05:51:06.810Z,9.80
2023-04-29T05:53:33.948Z,7.90
2023-04-29T05:56:00.978Z,7.05
2023-04-29T05:58:27.961Z,7.97
2023-04-29T06:00:55.110Z,9.63
2023-04-29T06:03:22.231Z,12.15
2023-04-29T06:05:50.443Z,11.35
2023-04-29T06:08:17.728Z,9.50
2023-04-29T06:10:44.758Z,9.38
2023-04-29T06:13:11.974Z,84.47
2023-04-29T06:15:39.190Z,103.78
2023-04-29T06:18:06.226Z,79.37
2023-04-29T06:20:34.910Z,75.53
2023-04-29T06:23:03.150Z,85.55
2023-04-29T06:25:30.393Z,48.95
2023-04-29T06:28:00.572Z,13.98
2023-04-29T06:30:27.608Z,17.50
2023-04-29T06:32:54.644Z,6.70
2023-04-29T06:35:21.692Z,10.43
2023-04-29T06:37:48.714Z,10.13
2023-04-29T06:40:15.751Z,11.45
2023-04-29T06:42:44.013Z,7.47
2023-04-29T06:45:11.612Z,10.25
2023-04-29T06:47:38.608Z,8.10
2023-04-29T06:50:06.111Z,8.77
2023-04-29T06:52:33.742Z,8.23
2023-04-29T06:55:01.085Z,9.98
2023-04-29T06:57:28.017Z,13.00
2023-04-29T06:59:55.219Z,10.15
2023-04-29T07:02:22.425Z,8.55
2023-04-29T07:04:50.434Z,11.65
2023-04-29T07:07:17.528Z,9.43
2023-04-29T07:09:44.731Z,12.43
2023-04-29T07:12:11.754Z,8.73
2023-04-29T07:14:38.772Z,9.50
2023-04-29T07:17:05.731Z,8.05
2023-04-29T07:19:32.777Z,10.82
2023-04-29T07:22:00.155Z,10.07
2023-04-29T07:24:27.150Z,12.63
2023-04-29T07:26:54.138Z,8.25
2023-04-29T07:29:21.073Z,9.77
2023-04-29T07:31:48.187Z,8.20
2023-04-29T07:34:15.263Z,6.35
2023-04-29T07:36:42.192Z,7.75
2023-04-29T07:39:09.386Z,10.63
2023-04-29T07:41:36.367Z,10.00
2023-04-29T07:44:03.396Z,8.73
2023-04-29T07:46:30.383Z,13.52
2023-04-29T07:48:58.645Z,7.45
2023-04-29T07:51:25.814Z,6.47
2023-04-29T07:53:52.752Z,9.45
2023-04-29T07:56:20.261Z,10.18
2023-04-29T07:58:47.425Z,14.48
2023-04-29T08:01:15.812Z,9.82
2023-04-29T08:03:43.251Z,10.15
2023-04-29T08:06:10.535Z,9.20
2023-04-29T08:08:37.796Z,9.32
2023-04-29T08:11:05.009Z,9.13
2023-04-29T08:13:32.010Z,8.52
2023-04-29T08:15:59.016Z,9.45
2023-04-29T08:18:26.013Z,9.77
2023-04-29T08:20:53.497Z,11.73
2023-04-29T08:23:20.406Z,10.52
2023-04-29T08:25:47.669Z,10.30
2023-04-29T08:28:14.688Z,13.45
2023-04-29T08:30:41.862Z,9.27
2023-04-29T08:33:09.461Z,10.90
2023-04-29T08:35:39.590Z,9.00
2023-04-29T08:38:07.403Z,7.87
2023-04-29T08:40:42.729Z,9.23
2023-04-29T08:43:10.951Z,8.93
2023-04-29T08:45:40.005Z,11.57
2023-04-29T08:48:10.901Z,9.73
2023-04-29T08:50:42.092Z,8.20
2023-04-29T08:53:10.909Z,7.55
2023-04-29T08:55:46.013Z,9.63
2023-04-29T08:58:14.149Z,7.43
2023-04-29T09:00:43.512Z,7.05
2023-04-29T09:03:29.822Z,4.70
2023-04-29T09:06:00.591Z,7.72
2023-04-29T09:08:28.336Z,7.62
2023-04-29T09:10:56.799Z,6.87
2023-04-29T09:13:28.854Z,5.57
2023-04-29T09:15:56.371Z,5.72
2023-04-29T09:18:49.374Z,5.50
2023-04-29T09:21:27.747Z,7.10
2023-04-29T09:23:56.671Z,4.90
2023-04-29T09:26:27.330Z,6.50
2023-04-29T09:29:18.545Z,7.50
2023-04-29T09:31:46.948Z,6.93
2023-04-29T09:34:14.877Z,6.68
2023-04-29T09:36:55.291Z,6.07
2023-04-29T09:39:23.758Z,5.20
2023-04-29T09:41:53.768Z,5.07
2023-04-29T09:44:24.630Z,5.70
2023-04-29T09:47:06.684Z,4.10
2023-04-29T09:49:41.986Z,6.35
2023-04-29T09:52:13.881Z,5.40
2023-04-29T09:54:43.505Z,4.87
2023-04-29T09:57:12.988Z,3.80
2023-04-29T10:02:11.882Z,6.60
2023-04-29T10:04:42.090Z,4.20
2023-04-29T10:07:10.039Z,4.12
2023-04-29T10:09:40.314Z,4.80
2023-04-29T10:12:08.133Z,2.95
2023-04-29T10:14:42.439Z,3.05
2023-04-29T10:17:17.244Z,5.90
2023-04-29T10:19:58.781Z,4.30
2023-04-29T10:22:48.124Z,7.15
2023-04-29T10:25:20.852Z,8.05
2023-04-29T10:27:49.216Z,4.60
2023-04-29T10:30:18.121Z,5.60
2023-04-29T10:35:20.367Z,4.62
2023-04-29T10:37:49.118Z,7.72
2023-04-29T10:40:19.279Z,5.07
2023-04-29T10:42:51.357Z,4.85
2023-04-29T10:45:22.834Z,4.03
2023-04-29T10:48:11.043Z,4.57
2023-04-29T10:50:47.836Z,3.97
2023-04-29T10:53:16.208Z,4.35
2023-04-29T10:55:47.269Z,9.50
2023-04-29T10:58:37.206Z,2.40
2023-04-29T11:01:05.713Z,4.68
2023-04-29T11:03:59.704Z,3.85
2023-04-29T11:06:41.819Z,4.10
2023-04-29T11:09:21.927Z,2.55
2023-04-29T11:12:06.930Z,3.10
2023-04-29T11:14:41.052Z,3.33
2023-04-29T11:17:19.286Z,4.47
2023-04-29T11:19:49.812Z,3.40
2023-04-29T11:22:37.100Z,3.17
2023-04-29T11:25:06.163Z,2.25
2023-04-29T11:27:34.757Z,3.72
2023-04-29T11:30:05.398Z,2.80
2023-04-29T11:32:38.219Z,3.53
2023-04-29T11:35:16.136Z,4.18
2023-04-29T11:37:45.903Z,5.03
2023-04-29T11:40:13.992Z,2.55
2023-04-29T11:42:49.608Z,3.08
2023-04-29T11:45:20.758Z,2.50
2023-04-29T11:47:49.037Z,2.83
2023-04-29T11:50:19.546Z,2.22
2023-04-29T11:52:48.141Z,2.45
2023-04-29T11:55:15.447Z,4.87
2023-04-29T11:57:42.517Z,2.50
2023-04-29T12:00:14.207Z,2.60
2023-04-29T12:02:46.673Z,3.20
2023-04-29T12:05:16.203Z,6.15
2023-04-29T12:07:44.158Z,2.22
2023-04-29T12:10:12.123Z,2.97
2023-04-29T12:12:49.588Z,4.25
2023-04-29T12:15:17.015Z,3.65
2023-04-29T12:17:44.566Z,3.50
2023-04-29T12:20:12.403Z,5.37
2023-04-29T12:22:40.030Z,2.47
2023-04-29T12:25:08.150Z,3.70
2023-04-29T12:27:41.708Z,3.92
2023-04-29T12:30:10.194Z,4.50
2023-04-29T12:32:37.786Z,4.03
2023-04-29T12:35:04.998Z,4.37
2023-04-29T12:37:31.967Z,7.62
2023-04-29T12:39:58.968Z,9.80
2023-04-29T12:42:33.021Z,4.75
2023-04-29T12:45:00.044Z,5.78
2023-04-29T12:47:34.961Z,3.58
2023-04-29T12:50:01.983Z,6.28
2023-04-29T12:52:29.019Z,5.15
2023-04-29T12:54:57.656Z,4.35
2023-04-29T12:57:26.734Z,5.63
2023-04-29T12:59:53.706Z,4.37
2023-04-29T13:02:21.023Z,4.00
2023-04-29T13:04:48.355Z,6.35
2023-04-29T13:07:16.033Z,3.62
2023-04-29T13:09:43.077Z,7.53
2023-04-29T13:12:10.055Z,3.75
2023-04-29T13:14:37.128Z,2.95
2023-04-29T13:17:04.394Z,6.47
2023-04-29T13:19:49.788Z,4.03
2023-04-29T13:22:18.573Z,5.10
2023-04-29T13:24:46.203Z,4.28
2023-04-29T13:27:13.427Z,5.00
2023-04-29T13:29:40.466Z,4.32
2023-04-29T13:32:08.481Z,4.10
2023-04-29T13:34:36.267Z,6.80
2023-04-29T13:37:03.329Z,2.85
2023-04-29T13:39:30.396Z,3.55
2023-04-29T13:41:59.202Z,3.22
2023-04-29T13:44:33.280Z,3.10
2023-04-29T13:47:07.528Z,3.10
2023-04-29T13:50:20.114Z,2.75
2023-04-29T13:55:25.895Z,4.78
2023-04-29T13:58:30.770Z,4.05
2023-04-29T14:01:01.398Z,4.18
2023-04-29T14:03:13.144Z,3.90
2023-04-29T14:05:40.376Z,4.90
2023-04-29T14:08:07.586Z,2.22
2023-04-29T14:10:34.847Z,3.40
2023-04-29T14:13:01.889Z,3.45
2023-04-29T14:15:29.167Z,3.05
2023-04-29T14:17:57.293Z,4.25
2023-04-29T14:20:24.265Z,3.22
2023-04-29T14:22:51.316Z,4.25
2023-04-29T14:25:18.805Z,8.32
2023-04-29T14:27:45.954Z,4.18
2023-04-29T14:30:13.355Z,3.75
2023-04-29T14:32:40.286Z,2.90
2023-04-29T14:35:07.817Z,5.07
2023-04-29T14:37:34.737Z,5.45
2023-04-29T14:40:01.937Z,1.17
2023-04-29T14:42:28.995Z,1.40
2023-04-29T14:44:56.509Z,3.22
2023-04-29T14:47:23.589Z,3.20
2023-04-29T14:49:50.690Z,4.82
2023-04-29T14:52:17.609Z,3.12
2023-04-29T14:54:44.960Z,1.92
2023-04-29T14:57:12.169Z,3.55
2023-04-29T14:59:39.104Z,2.45
2023-04-29T15:02:06.300Z,2.22
2023-04-29T15:04:33.451Z,3.95
2023-04-29T15:07:00.429Z,1.10
2023-04-29T15:09:27.597Z,2.90
2023-04-29T15:11:54.593Z,1.65
2023-04-29T15:14:21.642Z,3.62
2023-04-29T15:16:49.297Z,2.50
2023-04-29T15:19:16.588Z,5.03
2023-04-29T15:21:43.525Z,2.10
2023-04-29T15:24:10.502Z,4.28
2023-04-29T15:26:37.481Z,1.67
2023-04-29T15:29:04.508Z,2.95
2023-04-29T15:31:31.512Z,4.70
2023-04-29T15:33:58.586Z,1.90
2023-04-29T15:36:30.547Z,2.87
2023-04-29T15:38:58.527Z,2.80
2023-04-29T15:41:26.790Z,2.58
2023-04-29T15:43:55.073Z,3.03
2023-04-29T15:46:22.319Z,3.15
2023-04-29T15:48:49.368Z,4.03
2023-04-29T15:51:16.409Z,3.10
2023-04-29T15:53:44.088Z,2.60
2023-04-29T15:56:11.768Z,3.87
2023-04-29T15:58:38.718Z,2.70
2023-04-29T16:01:05.919Z,1.50
2023-04-29T16:03:32.963Z,2.75
2023-04-29T16:06:00.186Z,3.22
2023-04-29T16:08:27.534Z,2.28
2023-04-29T16:10:54.488Z,3.25
2023-04-29T16:13:21.506Z,3.53
2023-04-29T16:15:48.469Z,3.62
2023-04-29T16:18:17.630Z,2.70
2023-04-29T16:20:45.192Z,2.47
2023-04-29T16:23:12.472Z,2.90
2023-04-29T16:25:41.620Z,2.45
2023-04-29T16:28:08.806Z,4.30
2023-04-29T16:30:36.522Z,1.85
2023-04-29T16:33:03.532Z,4.43
2023-04-29T16:35:31.158Z,4.00
2023-04-29T16:37:58.147Z,4.97
2023-04-29T16:40:25.328Z,2.45
2023-04-29T16:42:53.616Z,4.75
2023-04-29T16:45:23.755Z,4.32
2023-04-29T16:47:51.134Z,3.12
2023-04-29T16:50:18.492Z,5.35
2023-04-29T16:52:45.719Z,3.95
2023-04-29T16:55:13.373Z,5.18
2023-04-29T16:57:40.339Z,4.68
2023-04-29T17:00:10.550Z,4.28
2023-04-29T17:02:40.626Z,3.53
2023-04-29T17:05:09.253Z,3.85
2023-04-29T17:07:36.288Z,4.50
2023-04-29T17:10:04.050Z,3.83
2023-04-29T17:12:31.124Z,4.00
2023-04-29T17:14:58.091Z,6.85
2023-04-29T17:17:25.203Z,10.75
2023-04-29T17:19:52.496Z,9.63
2023-04-29T17:22:20.083Z,10.30
2023-04-29T17:24:47.279Z,7.03
2023-04-29T17:27:14.635Z,10.35
2023-04-29T17:29:41.595Z,15.43
2023-04-29T17:32:13.480Z,9.05
2023-04-29T17:34:40.808Z,9.57
2023-04-29T17:37:07.945Z,9.13
2023-04-29T17:39:34.932Z,9.15
2023-04-29T17:42:01.922Z,10.85
2023-04-29T17:44:29.095Z,11.30
2023-04-29T17:46:56.091Z,13.62
2023-04-29T17:49:23.163Z,12.40
2023-04-29T17:51:50.186Z,9.18
2023-04-29T17:54:17.306Z,15.07
2023-04-29T17:56:44.323Z,14.07
2023-04-29T17:59:11.409Z,11.68
2023-04-29T18:01:38.431Z,14.68
2023-04-29T18:04:06.374Z,11.68
2023-04-29T18:06:33.555Z,13.77
2023-04-29T18:09:00.899Z,14.38
2023-04-29T18:11:27.936Z,13.82
2023-04-29T18:13:55.116Z,17.62
2023-04-29T18:16:22.224Z,23.65
2023-04-29T18:18:53.953Z,28.08
2023-04-29T18:21:27.808Z,22.67
2023-04-29T18:23:56.075Z,18.00
2023-04-29T18:26:23.390Z,14.65
2023-04-29T18:28:51.109Z,13.40
2023-04-29T18:31:19.344Z,19.83
2023-04-29T18:33:46.502Z,20.77
2023-04-29T18:36:14.654Z,13.73
2023-04-29T18:38:41.844Z,14.32
2023-04-29T18:41:09.332Z,14.73
2023-04-29T18:43:36.805Z,14.13
2023-04-29T18:46:03.899Z,14.55
2023-04-29T18:48:31.365Z,16.17
2023-04-29T18:51:00.368Z,14.75
2023-04-29T18:53:27.369Z,13.70
2023-04-29T18:55:54.594Z,16.52
2023-04-29T18:58:21.842Z,14.48
2023-04-29T19:00:49.133Z,18.55
2023-04-29T19:03:16.171Z,12.77
2023-04-29T19:05:43.537Z,7.25
2023-04-29T19:08:10.594Z,7.37
2023-04-29T19:10:37.627Z,8.63
2023-04-29T19:13:04.669Z,10.95
2023-04-29T19:15:32.331Z,9.32
2023-04-29T19:17:59.362Z,8.75
2023-04-29T19:20:27.845Z,6.35
2023-04-29T19:22:54.817Z,6.97
2023-04-29T19:25:22.005Z,6.62
2023-04-29T19:27:51.993Z,5.65
2023-04-29T19:30:19.183Z,5.25
2023-04-29T19:32:47.112Z,5.18
2023-04-29T19:35:14.205Z,6.87
2023-04-29T19:37:41.321Z,8.27
2023-04-29T19:40:11.251Z,6.20
2023-04-29T19:42:39.502Z,5.05
2023-04-29T19:45:07.928Z,4.30
2023-04-29T19:47:35.485Z,5.32
2023-04-29T19:50:02.797Z,4.75
2023-04-29T19:52:30.129Z,2.75
2023-04-29T19:54:57.189Z,2.58
2023-04-29T19:57:24.316Z,3.55
2023-04-29T19:59:51.466Z,3.03
2023-04-29T20:02:19.332Z,2.15
2023-04-29T20:04:46.613Z,2.85
2023-04-29T20:07:13.964Z,6.37
2023-04-29T20:09:41.027Z,6.70
2023-04-29T20:12:08.003Z,4.60
2023-04-29T20:14:34.967Z,4.40
2023-04-29T20:17:02.159Z,5.72
2023-04-29T20:19:29.269Z,7.45
2023-04-29T20:21:56.296Z,7.28
2023-04-29T20:24:23.791Z,3.72
2023-04-29T20:26:50.765Z,6.35
2023-04-29T20:29:17.736Z,4.97
2023-04-29T20:31:44.886Z,6.57
2023-04-29T20:34:12.473Z,5.43
2023-04-29T20:36:39.669Z,8.15
2023-04-29T20:39:07.201Z,8.90
2023-04-29T20:41:34.206Z,5.50
2023-04-29T20:44:01.289Z,5.37
2023-04-29T20:46:28.276Z,6.85
2023-04-29T20:48:55.212Z,7.57
2023-04-29T20:51:22.309Z,6.15
2023-04-29T20:53:50.002Z,5.70
2023-04-29T20:56:17.008Z,8.25
2023-04-29T20:58:43.980Z,6.62
2023-04-29T21:01:11.006Z,4.75
2023-04-29T21:03:38.489Z,2.83
2023-04-29T21:06:05.551Z,7.65
2023-04-29T21:08:32.560Z,4.10
2023-04-29T21:11:00.128Z,2.55
2023-04-29T21:13:27.126Z,3.47
2023-04-29T21:15:54.250Z,5.85
2023-04-29T21:18:21.336Z,4.43
2023-04-29T21:20:48.252Z,5.10
2023-04-29T21:23:15.728Z,2.83
2023-04-29T21:25:42.688Z,2.22
2023-04-29T21:28:09.749Z,2.50
2023-04-29T21:30:36.789Z,5.05
2023-04-29T21:33:03.832Z,3.97
2023-04-29T21:35:31.016Z,3.25
2023-04-29T21:37:58.187Z,2.90
2023-04-29T21:40:26.811Z,3.65
2023-04-29T21:42:55.536Z,4.00
2023-04-29T21:45:22.720Z,4.37
2023-04-29T21:47:50.179Z,2.90
2023-04-29T21:50:17.190Z,2.53
2023-04-29T21:52:44.277Z,3.37
2023-04-29T21:55:11.420Z,5.62
2023-04-29T21:57:44.518Z,7.62
2023-04-29T22:00:28.907Z,2.35
2023-04-29T22:02:55.941Z,2.00
2023-04-29T22:05:22.928Z,5.68
2023-04-29T22:07:49.907Z,1.98
2023-04-29T22:10:16.897Z,1.90
2023-04-29T22:12:43.859Z,2.67
2023-04-29T22:15:20.953Z,1.42
2023-04-29T22:17:54.949Z,3.50
2023-04-29T22:20:21.908Z,2.15
2023-04-29T22:22:48.912Z,2.10
2023-04-29T22:25:15.944Z,2.85
2023-04-29T22:27:42.896Z,2.12
2023-04-29T22:30:10.260Z,3.75
2023-04-29T22:32:37.250Z,2.42
2023-04-29T22:35:05.009Z,3.60
2023-04-29T22:37:32.138Z,1.23
2023-04-29T22:39:59.086Z,5.22
2023-04-29T22:42:26.111Z,5.20
2023-04-29T22:44:53.089Z,4.47
2023-04-29T22:47:20.099Z,2.75
2023-04-29T22:49:47.087Z,4.22
2023-04-29T22:52:16.717Z,2.78
2023-04-29T22:54:43.703Z,4.35
2023-04-29T22:57:10.793Z,1.52
2023-04-29T22:59:37.710Z,3.17
2023-04-29T23:02:04.950Z,2.22
2023-04-29T23:04:33.693Z,2.92
2023-04-29T23:07:01.521Z,2.05
2023-04-29T23:09:28.843Z,3.47
2023-04-29T23:11:55.951Z,1.60
2023-04-29T23:14:23.098Z,2.95
2023-04-29T23:16:51.322Z,2.20
2023-04-29T23:19:18.356Z,2.90
2023-04-29T23:21:45.417Z,3.20
2023-04-29T23:24:12.388Z,2.40
2023-04-29T23:26:39.266Z,4.37
2023-04-29T23:29:06.469Z,2.85
2023-04-29T23:31:33.482Z,3.33
2023-04-29T23:34:01.210Z,1.95
2023-04-29T23:36:28.403Z,2.78
2023-04-29T23:38:55.372Z,1.90
2023-04-29T23:41:22.419Z,3.08
2023-04-29T23:43:49.366Z,6.97
2023-04-29T23:46:16.323Z,2.58
2023-04-29T23:48:43.530Z,2.87
2023-04-29T23:51:10.852Z,2.30
2023-04-29T23:53:39.611Z,2.80
2023-04-29T23:56:06.729Z,3.03
2023-04-29T23:58:33.710Z,4.07
